METAR Data
IDs: Format: Raw Decoded Include TAF

Data at: 1056 UTC 16 Feb 2019

PAAK 160956Z AUTO 15015KT 10SM FEW026 BKN050 OVC065 04/M01 A2973 RMK AO2 PK WND 16027/0910 SLP068 T00391011 PNO $
PAAK 160912Z AUTO 15018G27KT 10SM FEW020 BKN044 OVC060 04/M01 A2972 RMK AO2 PK WND 16027/0910 PNO $
PAAK 160856Z AUTO 15019G28KT 10SM BKN020 BKN026 OVC045 03/M01 A2972 RMK AO2 PK WND 16028/0854 RAE40 SLP065 6//// T00331006 400390000 58001 PNO $
PAAK 160756Z AUTO 16018G23KT 9SM -RA BKN015 BKN020 OVC031 02/00 A2972 RMK AO2 RAB28 SLP065 T00220000 FZRANO PNO $
PAAK 160748Z AUTO 15015G20KT 6SM RA BR SCT013 BKN020 OVC036 02/00 A2972 RMK AO2 RAB28 FZRANO PNO $
PAAK 160656Z AUTO 15015KT 10SM FEW027 BKN036 OVC046 03/M02 A2973 RMK AO2 RAB13E14UPB14E28 SLP068 T00331022 PNO $
PAAK 160556Z AUTO 17015G20KT 10SM FEW028 BKN039 OVC070 03/M03 A2972 RMK AO2 RAB26E51 SLP066 6//// T00331028 10039 20017 52005 PNO $
PAAK 160456Z AUTO 18017G21KT 10SM FEW037 03/M04 A2972 RMK AO2 SLP064 T00281039 PNO $
PAAK 160256Z AUTO 19015G19KT 10SM FEW120 03/M04 A2971 RMK AO2 SLP061 6//// T00331044 56002 PNO $
PAAK 160156Z AUTO 19011G22KT 10SM BKN042 03/M04 A2971 RMK AO2 SLP062 T00331044 PNO $
PAAK 160056Z AUTO 21015G24KT 10SM BKN041 OVC049 03/M05 A2971 RMK AO2 PK WND 20028/0019 RAB09E14SNE09 SLP061 T00331050 PNO $
PAAK 160011Z AUTO 20014G22KT 9SM -RA FEW006 SCT030 BKN036 02/M03 A2971 RMK AO2 RAB09SNE09 FZRANO PNO $
PAAK 152356Z AUTO 21014G21KT 2SM -SN FEW006 BKN034 BKN042 02/M03 A2971 RMK AO2 PK WND 21032/2340 VIS 1/2V5 UPB38E40RAB40E46SNB46 SLP063 6//// T00171033 10028 20006 53014 FZRANO PNO $
PAAK 152345Z AUTO 22019G32KT 1SM -RA FEW009 SCT030 BKN035 02/M03 A2972 RMK AO2 PK WND 21032/2340 VIS 1/4V5 UPB38E40RAB40 FZRANO PNO $
PAAK 152256Z AUTO 21018G27KT 10SM SCT042 SCT050 02/M04 A2969 RMK AO2 PK WND 20031/2221 UPB21E23RAB23E32 SLP056 T00221044 FZRANO PNO $
PAAK 152156Z AUTO 21017G28KT 10SM FEW043 SCT055 02/M05 A2968 RMK AO2 PK WND 20028/2151 RAB13E30SNE10 SLP053 T00221050 FZRANO PNO $
PAAK 152103Z AUTO 22014G19KT 3SM -SN FEW013 BKN040 BKN060 01/M04 A2967 RMK AO2 FZRANO PNO $
PAAK 152056Z AUTO 21014G37KT 1SM -SN FEW013 SCT018 BKN036 01/M05 A2967 RMK AO2 PK WND 21037/2049 RAB1957E1959B49E53SNB1959E17B53 SLP049 6//// T00061050 53024 FZRANO PNO $
PAAK 152052Z AUTO 22022G37KT 1 1/2SM -RA FEW016 BKN036 BKN043 01/M05 A2968 RMK AO2 PK WND 21037/2049 RAB1957E1959B49SNB1959E17 PRESRR FZRANO PNO $
PAAK 152009Z AUTO 20017G27KT 3SM -SN FEW013 SCT024 BKN046 01/M04 A2965 RMK AO2 PK WND 18030/1958 RAB1957E1959SNB1959 FZRANO PNO $
PAAK 151959Z AUTO 19023G30KT 1 1/2SM -SN FEW009 SCT024 SCT047 02/M03 A2965 RMK AO2 PK WND 18030/1958 RAB57E59SNB59 FZRANO PNO $
PAAK 151956Z AUTO 19020G27KT 7SM FEW024 SCT047 02/M03 A2964 RMK AO2 PK WND 19030/1857 RAB17E33 SLP039 T00171033 FZRANO PNO $
PAAK 151856Z AUTO 19022G33KT 10SM SCT047 SCT060 02/M06 A2962 RMK AO2 PK WND 18033/1856 SLP031 T00171056 FZRANO PNO $
PAAK 151756Z AUTO 21013G23KT 180V240 9SM FEW010 SCT029 BKN038 01/M04 A2960 RMK AO2 PK WND 25032/1720 RAB21E25SNB25E52 SLP025 6//// T00061044 10022 20000 53022 FZRANO PNO $
PAAK 151656Z AUTO 21018G24KT 10SM FEW043 BKN050 BKN085 02/M07 A2957 RMK AO2 PK WND 21032/1636 RAB17E31 SLP015 T00221067 FZRANO PNO $
PAAK 151556Z AUTO 21014G22KT 10SM FEW027 BKN036 OVC060 02/M05 A2955 RMK AO2 PK WND 19028/1457 RAE1457SNB1457E25 SLP009 T00171050 FZRANO PNO $
PAAK 151525Z AUTO 21016G23KT 9SM FEW006 SCT015 01/M04 A2954 RMK AO2 PK WND 19028/1457 RAE1457SNB1457E25 FZRANO PNO $
PAAK 151515Z AUTO 21010G19KT 3SM -SN SCT008 BKN015 BKN024 00/M03 A2954 RMK AO2 PK WND 19028/1457 RAE1457SNB1457 FZRANO PNO $
PAAK 151512Z AUTO 21009G24KT 1 1/4SM -SN SCT008 BKN015 BKN024 00/M03 A2954 RMK AO2 PK WND 19028/1457 RAE1457SNB1457 FZRANO PNO $
PAAK 151510Z AUTO 21012G26KT 3/4SM -SN SCT008 BKN017 OVC038 00/M03 A2954 RMK AO2 PK WND 19028/1457 RAE1457SNB1457 CIG 013V027 FZRANO PNO $
PAAK 151504Z AUTO 20017G29KT 1/2SM SN BKN008 BKN022 OVC047 01/M02 A2954 RMK AO2 PK WND 19028/1457 RAE1457SNB1457 CIG 006V013 FZRANO PNO $
PAAK 151502Z AUTO 21020G29KT 3/4SM -SN SCT008 BKN022 OVC047 01/M02 A2954 RMK AO2 PK WND 19028/1457 RAE1457SNB1457 FZRANO PNO $
PAAK 151459Z AUTO 19021G29KT 1SM -SN FEW008 BKN037 OVC070 01/M02 A2954 RMK AO2 PK WND 19028/1457 RAE57SNB57 FZRANO PNO $
PAAK 151456Z AUTO 19023G29KT 2 1/2SM -RA FEW008 BKN037 OVC070 01/M03 A2954 RMK AO2 PK WND 18029/1456 RAB1359E12B42UPB12E17 PRESRR SLP003 6//// T00111033 51030 FZRANO PNO $
PAAK 151356Z AUTO 21016G22KT 10SM SCT048 BKN060 02/M06 A2951 RMK AO2 PK WND 20028/1258 RAE11 SLP993 T00221056 FZRANO PNO $
PAAK 151256Z AUTO 21014G24KT 10SM -RA BKN045 BKN060 02/M06 A2949 RMK AO2 PK WND 24032/1157 RAE05B38UPB1159E04 SLP986 T00221056 FZRANO PNO $
PAAK 151156Z AUTO 23023G32KT 5SM -RA FEW020 SCT031 BKN040 02/M04 A2945 RMK AO2 PK WND 24032/1156 RAE05B30 SLP973 6//// 7//// T00221044 10056 20017 51039 FZRANO PNO $
PAAK 151056Z AUTO 22019G32KT 5SM -RA FEW014 BKN038 BKN047 02/M03 A2941 RMK AO2 PK WND 22032/1047 RAB45 SLP961 T00171028 FZRANO PNO $
PAAK 150956Z AUTO 23021G31KT 10SM FEW029 03/M03 A2938 RMK AO2 PK WND 22033/0915 RAE02 SLP951 T00281028 PNO $
PAAK 150907Z AUTO 22015G26KT 8SM FEW017 SCT023 BKN095 04/00 A2933 RMK AO2 PK WND 20026/0901 RAE02 PNO $
PAAK 150856Z AUTO 21018G28KT 8SM -RA FEW017 BKN025 OVC100 03/01 A2933 RMK AO2 PK WND 21032/0804 SLP933 6//// T00330006 400610028 55023 PNO $
PAAK 150842Z AUTO 19021G26KT 6SM -RA BR SCT017 BKN023 OVC048 04/02 A2931 RMK AO2 PK WND 21032/0804 PNO $
PAAK 150756Z AUTO 20020G26KT 7SM -RA SCT012 SCT022 OVC034 04/03 A2931 RMK AO2 PK WND 16034/0721 SLP927 T00440028 PNO $
PAAK 150748Z AUTO 19021G30KT 4SM -RA BR BKN012 BKN022 OVC036 05/03 A2930 RMK AO2 PK WND 16034/0721 PNO $
PAAK 150727Z AUTO 16026G34KT 2SM -RA BR SCT006 OVC010 06/04 A2930 RMK AO2 PK WND 16034/0721 PNO $
PAAK 150720Z AUTO 16028G33KT 2SM -RA BR BKN006 OVC010 05/04 A2930 RMK AO2 PK WND 15033/0719 PNO $
PAAK 150656Z AUTO 14019G31KT 1 1/4SM RA BR OVC004 04/04 A2931 RMK AO2 PK WND 14035/0613 SLP928 T00440039 PNO $
PAAK 150649Z AUTO 14022G31KT 1 3/4SM -RA BR OVC006 04/03 A2932 RMK AO2 PK WND 14035/0613 PNO $
PAAK 150637Z AUTO 13028G32KT 2SM -RA BR OVC006 04/03 A2933 RMK AO2 PK WND 14035/0613 PNO $
PAAK 150556Z AUTO 13025G33KT 1 1/2SM -RA BR OVC006 04/03 A2940 RMK AO2 PK WND 12038/0508 RAE01B22 SLP956 6//// T00390028 10056 20039 58049 PNO $
PAAK 150549Z AUTO 13027G33KT 1 1/2SM -RA BR OVC006 04/03 A2940 RMK AO2 PK WND 12038/0508 RAE01B22 PRESFR PNO $
PAAK 150522Z AUTO 12028G34KT 2SM -RA BR BKN009 OVC012 04/02 A2943 RMK AO2 PK WND 12038/0508 RAE01B22 CIG 006V012 PNO $
PAAK 150509Z AUTO 13031G38KT 3SM BR OVC014 04/02 A2943 RMK AO2 PK WND 12038/0508 RAE01 PRESFR PNO $
PAAK 150504Z AUTO 12025G32KT 2 1/2SM BR OVC016 04/02 A2944 RMK AO2 PK WND 12032/0501 RAE01 PNO $
PAAK 150456Z AUTO 12030G34KT 3SM -RA BR OVC016 04/02 A2945 RMK AO2 PK WND 12039/0437 SLP973 T00440022 PNO $
PAAK 150356Z AUTO 11024G32KT 4SM -RA BKN024 OVC060 04/01 A2954 RMK AO2 PK WND 12032/0347 RAB35 PRESFR SLP003 T00440011 PNO $
PAAK 150354Z AUTO 11025G32KT 4SM -RA BKN024 OVC060 04/01 A2954 RMK AO2 PK WND 12032/0347 RAB35 PRESFR PNO $
PAAK 150256Z AUTO 12024G30KT 7SM OVC075 06/M01 A2960 RMK AO2 PK WND 12031/0206 SLP026 6//// T00561011 58069 PNO $
PAAK 150156Z AUTO 12021KT 4SM HZ FEW019 BKN085 04/02 A2967 RMK AO2 PK WND 13029/0102 PRESFR SLP049 T00440017 PNO $
PAAK 150126Z AUTO 11019G25KT 4SM HZ BKN017 OVC034 05/02 A2971 RMK AO2 PK WND 13029/0102 PRESFR PNO $
PAAK 150056Z AUTO 13024G29KT 4SM HZ SCT015 OVC030 05/02 A2975 RMK AO2 PK WND 13029/0054 SLP075 T00500022 PNO $
PAAK 150043Z AUTO 13020G26KT 4SM HZ SCT015 OVC030 06/02 A2976 RMK AO2 PK WND 12026/0043 PRESFR PNO $
PAAK 150010Z AUTO 11013G20KT 4SM HZ OVC015 06/03 A2980 RMK AO2 PNO $
PAAK 142356Z AUTO 11016G22KT 4SM BR OVC012 06/03 A2981 RMK AO2 PRESFR SLP095 6//// T00560033 10061 20028 58040 PNO $
PAAK 142323Z AUTO 11014KT 4SM BR BKN014 OVC019 05/03 A2984 RMK AO2 PNO $